Time;durP1;ratioP1;P1;durP2;ratioP2;P2;SDS_P1;SDS_P2;PMS_P1;PMS_P2;Temp;Humidity;BMP_temperature;BMP_pressure;BME280_temperature;BME280_humidity;BME280_pressure;Samples;Min_cycle;Max_cycle;Signal;HPM_P1;HPM_P2
2023/01/24 00:00:28;;;;;;;103.15;44.00;;;2.20;99.90;;;;;;2032449;29;20443;-67
2023/01/24 00:01:28;;;;;;;100.75;44.60;;;2.20;99.90;;;;;;2033445;29;20391;-67
2023/01/24 00:02:29;;;;;;;101.95;45.10;;;2.20;99.90;;;;;;2033819;29;20406;-67
2023/01/24 00:03:30;;;;;;;112.53;48.83;;;2.20;99.90;;;;;;2042293;29;20039;-67
2023/01/24 00:04:30;;;;;;;106.22;45.97;;;2.10;99.90;;;;;;2042733;29;20486;-67
2023/01/24 00:05:34;;;;;;;106.93;45.25;;;2.20;99.90;;;;;;2039974;28;20186;-67
2023/01/24 00:06:34;;;;;;;111.55;47.40;;;2.10;99.90;;;;;;2044135;29;20094;-71
2023/01/24 00:07:35;;;;;;;107.15;45.88;;;2.20;99.90;;;;;;2033911;29;20095;-68
2023/01/24 00:08:35;;;;;;;110.97;46.55;;;2.20;99.90;;;;;;2034595;29;20036;-67
2023/01/24 00:09:36;;;;;;;109.93;45.63;;;2.20;99.90;;;;;;2039329;29;20050;-67
2023/01/24 00:10:36;;;;;;;100.93;44.33;;;2.10;99.90;;;;;;2035443;29;20032;-68
2023/01/24 00:11:37;;;;;;;100.75;44.03;;;2.10;99.90;;;;;;2042356;29;20772;-68
2023/01/24 00:12:38;;;;;;;112.78;47.88;;;2.10;99.90;;;;;;2042298;29;20031;-67
2023/01/24 00:13:38;;;;;;;102.13;43.60;;;2.10;99.90;;;;;;2042308;29;20441;-67
2023/01/24 00:14:40;;;;;;;104.93;43.45;;;2.10;99.90;;;;;;2045047;28;20027;-66
2023/01/24 00:15:41;;;;;;;103.50;43.65;;;2.10;99.90;;;;;;2033634;29;20087;-67
2023/01/24 00:16:41;;;;;;;102.50;43.90;;;2.10;99.90;;;;;;2034335;29;20055;-67
2023/01/24 00:17:42;;;;;;;107.63;45.65;;;2.10;99.90;;;;;;2042693;28;20054;-72
2023/01/24 00:18:43;;;;;;;112.78;47.08;;;2.10;99.90;;;;;;2038269;28;20031;-75
2023/01/24 00:19:43;;;;;;;114.10;47.30;;;2.10;99.90;;;;;;2034144;29;20028;-73
2023/01/24 00:20:44;;;;;;;108.88;46.75;;;2.10;99.90;;;;;;2033667;29;20491;-74
2023/01/24 00:21:44;;;;;;;104.57;44.80;;;2.10;99.90;;;;;;2042021;29;20050;-73
2023/01/24 00:22:45;;;;;;;103.55;44.47;;;2.10;99.90;;;;;;2033707;29;20097;-74
2023/01/24 00:23:48;;;;;;;102.13;43.97;;;2.10;99.90;;;;;;2033548;29;20039;-74
2023/01/24 00:24:49;;;;;;;109.30;46.83;;;2.10;99.90;;;;;;2042575;28;20033;-74
2023/01/24 00:25:49;;;;;;;108.97;47.25;;;2.10;99.90;;;;;;2035411;29;20031;-74
2023/01/24 00:26:50;;;;;;;104.85;44.92;;;2.20;99.90;;;;;;2033543;29;20028;-72
2023/01/24 00:27:50;;;;;;;106.00;45.30;;;2.20;99.90;;;;;;2041822;28;20106;-73
2023/01/24 00:28:52;;;;;;;99.85;43.35;;;2.20;99.90;;;;;;2042131;29;20032;-72
2023/01/24 00:29:52;;;;;;;103.05;44.65;;;2.20;99.90;;;;;;2044415;28;20467;-73
2023/01/24 00:30:53;;;;;;;112.70;47.22;;;2.20;99.90;;;;;;2042179;29;20040;-72
2023/01/24 00:31:53;;;;;;;113.28;47.58;;;2.20;99.90;;;;;;2042098;29;20086;-74
2023/01/24 00:32:54;;;;;;;106.82;46.05;;;2.20;99.90;;;;;;2042015;29;20345;-73
2023/01/24 00:33:54;;;;;;;106.18;45.15;;;2.20;99.90;;;;;;2042042;29;20027;-73
2023/01/24 00:34:55;;;;;;;103.72;44.78;;;2.20;99.90;;;;;;2043814;29;20557;-73
2023/01/24 00:35:58;;;;;;;109.00;46.03;;;2.20;99.90;;;;;;2035353;29;20467;-73
2023/01/24 00:36:58;;;;;;;105.85;45.30;;;2.10;99.90;;;;;;2033563;29;20032;-74
2023/01/24 00:37:59;;;;;;;106.00;45.95;;;2.10;99.90;;;;;;2041551;29;20494;-74
2023/01/24 00:38:59;;;;;;;106.85;44.20;;;2.10;99.90;;;;;;2043495;28;20027;-74
2023/01/24 00:40:00;;;;;;;102.65;44.90;;;2.10;99.90;;;;;;2036451;29;20051;-74
2023/01/24 00:41:01;;;;;;;103.82;44.22;;;2.20;99.90;;;;;;2041360;28;20026;-74
2023/01/24 00:42:02;;;;;;;110.43;46.53;;;2.10;99.90;;;;;;2033401;29;20063;-74
2023/01/24 00:43:03;;;;;;;110.18;47.42;;;2.20;99.90;;;;;;2033675;29;20038;-75
2023/01/24 00:44:03;;;;;;;100.45;43.65;;;2.10;99.90;;;;;;2035085;29;20176;-74
2023/01/24 00:45:04;;;;;;;100.50;44.75;;;2.10;99.90;;;;;;2033722;29;20063;-74
2023/01/24 00:46:07;;;;;;;96.25;43.15;;;2.20;99.90;;;;;;2033409;29;20052;-74
2023/01/24 00:47:07;;;;;;;117.10;48.40;;;2.10;99.90;;;;;;2033554;29;20047;-73
2023/01/24 00:48:10;;;;;;;114.18;49.22;;;2.10;99.90;;;;;;2043967;29;20050;-74
2023/01/24 00:49:10;;;;;;;111.55;47.10;;;2.10;99.90;;;;;;2042007;29;20549;-72
2023/01/24 00:50:11;;;;;;;107.20;46.80;;;2.10;99.90;;;;;;2041948;29;20035;-73
2023/01/24 00:51:11;;;;;;;115.72;48.97;;;2.20;99.90;;;;;;2041889;29;20015;-74
2023/01/24 00:52:12;;;;;;;113.85;48.30;;;2.10;99.90;;;;;;2042185;29;20110;-73
2023/01/24 00:53:12;;;;;;;113.65;47.55;;;2.10;99.90;;;;;;2043920;29;20054;-75
2023/01/24 00:54:13;;;;;;;104.07;45.47;;;2.10;99.90;;;;;;2040277;29;20086;-72
2023/01/24 00:55:14;;;;;;;107.28;46.88;;;2.10;99.90;;;;;;2033741;29;20091;-73
2023/01/24 00:56:15;;;;;;;110.00;47.70;;;2.10;99.90;;;;;;2033688;29;20024;-72
2023/01/24 00:57:15;;;;;;;109.88;46.95;;;2.20;99.90;;;;;;2035499;29;20541;-73
2023/01/24 00:58:16;;;;;;;104.47;45.95;;;2.20;99.90;;;;;;2033403;29;20027;-73
2023/01/24 00:59:16;;;;;;;110.45;47.15;;;2.10;99.90;;;;;;2035065;29;20043;-73
2023/01/24 01:00:17;;;;;;;108.68;46.63;;;2.10;99.90;;;;;;2034037;29;20035;-73
2023/01/24 01:01:19;;;;;;;114.55;49.10;;;2.20;99.90;;;;;;2036737;29;20696;-73
2023/01/24 01:02:20;;;;;;;111.55;47.38;;;2.20;99.90;;;;;;2031406;29;20040;-73
2023/01/24 01:03:20;;;;;;;112.20;47.15;;;2.20;99.90;;;;;;2043643;28;20110;-73
2023/01/24 01:04:21;;;;;;;108.93;46.38;;;2.10;99.90;;;;;;2041534;28;20035;-73
2023/01/24 01:05:22;;;;;;;112.78;46.88;;;2.10;99.90;;;;;;2039688;28;20447;-73
2023/01/24 01:06:24;;;;;;;107.65;46.70;;;2.10;99.90;;;;;;2043887;29;20031;-72
2023/01/24 01:07:25;;;;;;;116.00;48.40;;;2.10;99.90;;;;;;2030793;29;20038;-72
2023/01/24 01:08:25;;;;;;;105.82;46.15;;;2.20;99.90;;;;;;2033249;29;20103;-73
2023/01/24 01:09:26;;;;;;;103.20;44.60;;;2.20;99.90;;;;;;2042461;28;20042;-73
2023/01/24 01:10:26;;;;;;;112.25;48.63;;;2.20;99.90;;;;;;2044035;29;20506;-73
2023/01/24 01:11:27;;;;;;;113.03;47.80;;;2.10;99.90;;;;;;2041981;28;20031;-73
2023/01/24 01:12:27;;;;;;;109.22;46.40;;;2.20;99.90;;;;;;2042029;29;20024;-73
2023/01/24 01:13:28;;;;;;;107.35;46.30;;;2.10;99.90;;;;;;2033494;29;20069;-73
2023/01/24 01:14:29;;;;;;;105.97;45.92;;;2.10;99.90;;;;;;2035642;29;20057;-74
2023/01/24 01:15:29;;;;;;;108.68;46.35;;;2.10;99.90;;;;;;2042287;28;20349;-74
2023/01/24 01:16:32;;;;;;;106.13;45.95;;;2.10;99.90;;;;;;2041004;28;20036;-72
2023/01/24 01:17:32;;;;;;;106.70;45.05;;;2.10;99.90;;;;;;2033212;29;20031;-71
2023/01/24 01:18:34;;;;;;;97.38;44.15;;;2.10;99.90;;;;;;2033452;29;20147;-72
2023/01/24 01:19:35;;;;;;;101.75;44.58;;;2.10;99.90;;;;;;2036927;29;20065;-74
2023/01/24 01:20:36;;;;;;;106.70;46.03;;;2.10;99.90;;;;;;2035231;29;20543;-74
2023/01/24 01:21:36;;;;;;;109.18;48.17;;;2.20;99.90;;;;;;2033375;29;20904;-74
2023/01/24 01:22:37;;;;;;;105.93;45.88;;;2.20;99.90;;;;;;2041559;29;20069;-74
2023/01/24 01:23:37;;;;;;;97.47;43.55;;;2.20;99.90;;;;;;2041861;29;20283;-75
2023/01/24 01:24:38;;;;;;;101.47;45.25;;;2.20;99.90;;;;;;2043959;29;20238;-75
2023/01/24 01:25:38;;;;;;;100.00;43.47;;;2.20;99.90;;;;;;2033588;29;20048;-74
2023/01/24 01:26:39;;;;;;;94.45;42.05;;;2.10;99.90;;;;;;2033408;29;20388;-74
2023/01/24 01:27:39;;;;;;;101.80;44.05;;;2.20;99.90;;;;;;2033202;29;20420;-74
2023/01/24 01:28:40;;;;;;;97.15;44.10;;;2.10;99.90;;;;;;2027268;29;20594;-73
2023/01/24 01:29:41;;;;;;;96.55;43.88;;;2.10;99.90;;;;;;2033130;29;20040;-73
2023/01/24 01:30:41;;;;;;;98.07;43.63;;;2.10;99.90;;;;;;2039433;29;20023;-73
2023/01/24 01:31:42;;;;;;;102.88;45.38;;;2.10;99.90;;;;;;2032991;29;20039;-73
2023/01/24 01:32:42;;;;;;;101.28;45.00;;;2.10;99.90;;;;;;2035520;29;20855;-73
2023/01/24 01:33:44;;;;;;;114.78;47.38;;;2.10;99.90;;;;;;2041830;29;20035;-73
2023/01/24 01:34:44;;;;;;;111.72;47.20;;;2.10;99.90;;;;;;2041805;29;20502;-72
2023/01/24 01:35:46;;;;;;;112.93;48.33;;;2.10;99.90;;;;;;2033340;29;20050;-73
2023/01/24 01:36:47;;;;;;;110.15;47.63;;;2.10;99.90;;;;;;2041136;29;20043;-73
2023/01/24 01:37:47;;;;;;;104.00;46.55;;;2.10;99.90;;;;;;2033080;29;20082;-72
2023/01/24 01:38:48;;;;;;;105.38;45.97;;;2.10;99.90;;;;;;2034908;29;20031;-74
2023/01/24 01:39:48;;;;;;;111.97;46.63;;;2.10;99.90;;;;;;2040827;28;20059;-74
2023/01/24 01:40:49;;;;;;;112.10;48.30;;;2.10;99.90;;;;;;2035619;29;20043;-74
2023/01/24 01:41:49;;;;;;;108.63;46.65;;;2.20;99.90;;;;;;2034956;29;20160;-74
2023/01/24 01:42:55;;;;;;;104.97;45.30;;;2.20;99.90;;;;;;2041128;29;20039;-73
2023/01/24 01:45:38;;;;;;;102.63;44.22;;;2.20;99.90;;;;;;2031214;29;20028;-73
2023/01/24 01:46:48;;;;;;;118.30;47.67;;;2.20;99.90;;;;;;2035341;29;20087;-73
2023/01/24 01:47:49;;;;;;;111.10;47.47;;;2.10;99.90;;;;;;2040774;29;20630;-73
2023/01/24 01:48:53;;;;;;;114.55;48.13;;;2.10;99.90;;;;;;2041127;29;20051;-73
2023/01/24 01:50:00;;;;;;;110.30;48.72;;;2.10;99.90;;;;;;2041801;29;20032;-74
2023/01/24 01:51:17;;;;;;;105.97;45.42;;;2.10;99.90;;;;;;2032904;29;20304;-74
2023/01/24 01:52:19;;;;;;;118.70;48.88;;;2.10;99.90;;;;;;2028683;29;20071;-73
2023/01/24 01:53:23;;;;;;;104.32;45.75;;;2.10;99.90;;;;;;2035229;29;20098;-75
2023/01/24 01:54:29;;;;;;;107.50;46.83;;;2.10;99.90;;;;;;2036399;29;20083;-75
2023/01/24 01:55:36;;;;;;;109.88;46.95;;;2.10;99.90;;;;;;2033464;29;20127;-73
2023/01/24 01:56:47;;;;;;;102.28;45.55;;;2.10;99.90;;;;;;2036510;29;20078;-73
2023/01/24 01:57:50;;;;;;;109.35;46.80;;;2.20;99.90;;;;;;2037853;29;20094;-73
2023/01/24 01:58:52;;;;;;;108.90;47.67;;;2.20;99.90;;;;;;2042811;29;20031;-73
2023/01/24 01:59:55;;;;;;;105.97;46.80;;;2.20;99.90;;;;;;2042978;29;20041;-72
2023/01/24 02:00:56;;;;;;;105.75;45.90;;;2.20;99.90;;;;;;2043161;28;20015;-73
2023/01/24 02:01:58;;;;;;;106.15;46.70;;;2.20;99.90;;;;;;2042975;28;20083;-73
2023/01/24 02:04:36;;;;;;;114.82;47.67;;;2.20;99.90;;;;;;2043049;28;20031;-73
2023/01/24 02:05:37;;;;;;;116.03;47.30;;;2.10;99.90;;;;;;2034087;29;20044;-73
2023/01/24 02:06:51;;;;;;;106.55;45.38;;;2.10;99.90;;;;;;2034560;29;20480;-72
2023/01/24 02:07:59;;;;;;;104.28;45.28;;;2.10;99.90;;;;;;2042904;28;20503;-73
2023/01/24 02:09:01;;;;;;;109.45;47.08;;;2.10;99.90;;;;;;2034699;29;20035;-73
2023/01/24 02:10:03;;;;;;;100.93;44.22;;;2.10;99.90;;;;;;2034796;29;20031;-73
2023/01/24 02:12:28;;;;;;;109.20;46.15;;;2.10;99.90;;;;;;2034884;29;20118;-73
2023/01/24 02:13:29;;;;;;;105.57;45.65;;;2.10;99.90;;;;;;2026688;29;20123;-72
2023/01/24 02:16:02;;;;;;;107.35;45.67;;;2.10;99.90;;;;;;2041528;29;20027;-73
2023/01/24 02:17:02;;;;;;;111.07;46.70;;;2.20;99.90;;;;;;2030252;29;20025;-73
2023/01/24 02:18:05;;;;;;;106.97;46.08;;;2.10;99.90;;;;;;2026069;29;20028;-72
2023/01/24 02:19:09;;;;;;;103.53;45.22;;;2.10;99.90;;;;;;2024037;29;20028;-75
2023/01/24 02:20:35;;;;;;;99.40;43.10;;;2.10;99.90;;;;;;2027199;29;20169;-74
2023/01/24 02:21:36;;;;;;;103.75;43.95;;;2.10;99.90;;;;;;2038135;28;20040;-73
2023/01/24 02:23:15;;;;;;;101.75;43.88;;;2.10;99.90;;;;;;2048346;28;20082;-74
2023/01/24 02:24:28;;;;;;;105.38;44.35;;;2.10;99.90;;;;;;2043067;29;20085;-73
2023/01/24 02:25:41;;;;;;;108.63;46.30;;;2.10;99.90;;;;;;2036642;29;20128;-74
2023/01/24 02:26:42;;;;;;;103.80;44.67;;;2.10;99.90;;;;;;2033545;29;20463;-74
2023/01/24 02:27:42;;;;;;;102.93;45.08;;;2.10;99.90;;;;;;2040639;28;20050;-73
2023/01/24 02:28:48;;;;;;;107.60;47.20;;;2.10;99.90;;;;;;2042252;28;20400;-73
2023/01/24 02:29:49;;;;;;;114.38;47.90;;;2.10;99.90;;;;;;2042445;28;20035;-72
2023/01/24 02:30:50;;;;;;;109.80;49.42;;;2.10;99.90;;;;;;2043029;29;20088;-73
2023/01/24 02:31:59;;;;;;;111.55;48.05;;;2.10;99.90;;;;;;2038777;29;20063;-73
2023/01/24 02:33:18;;;;;;;117.32;48.90;;;2.10;99.90;;;;;;2037075;29;20039;-73
2023/01/24 02:34:19;;;;;;;103.40;45.03;;;2.10;99.90;;;;;;2042789;29;20039;-73
2023/01/24 02:35:31;;;;;;;98.53;45.10;;;2.10;99.90;;;;;;2033579;29;20040;-71
2023/01/24 02:36:37;;;;;;;102.57;44.00;;;2.10;99.90;;;;;;2027771;29;20471;-73
2023/01/24 02:37:37;;;;;;;99.63;44.25;;;2.10;99.90;;;;;;2026378;29;20040;-73
2023/01/24 02:38:40;;;;;;;97.00;44.30;;;2.10;99.90;;;;;;2027037;29;20488;-73
2023/01/24 02:39:58;;;;;;;90.38;41.92;;;2.10;99.90;;;;;;2031986;29;20023;-73
2023/01/24 02:41:06;;;;;;;95.22;42.13;;;2.10;99.90;;;;;;2039384;29;20098;-72
2023/01/24 02:42:16;;;;;;;104.82;45.92;;;2.10;99.90;;;;;;2033157;29;20533;-73
2023/01/24 02:43:22;;;;;;;111.10;46.58;;;2.10;99.90;;;;;;2019747;29;20101;-72
2023/01/24 02:44:42;;;;;;;112.63;46.67;;;2.10;99.90;;;;;;2029426;29;20183;-73
2023/01/24 02:45:43;;;;;;;108.32;45.95;;;2.10;99.90;;;;;;2033953;29;20033;-73
2023/01/24 02:46:44;;;;;;;103.95;45.53;;;2.10;99.90;;;;;;2035208;29;20036;-73
2023/01/24 02:47:47;;;;;;;106.18;45.35;;;2.10;99.90;;;;;;2044300;29;20066;-74
2023/01/24 02:48:52;;;;;;;107.13;46.25;;;2.10;99.90;;;;;;2042438;28;20695;-73
2023/01/24 02:49:52;;;;;;;96.13;43.20;;;2.10;99.90;;;;;;2038230;28;20106;-73
2023/01/24 02:53:31;;;;;;;104.68;44.53;;;2.10;99.90;;;;;;2042742;29;20059;-74
2023/01/24 02:54:32;;;;;;;111.57;47.33;;;2.00;99.90;;;;;;2041318;29;20079;-73
2023/01/24 02:55:33;;;;;;;112.22;47.42;;;2.10;99.90;;;;;;2038549;29;20031;-73
2023/01/24 02:58:07;;;;;;;109.68;45.35;;;2.10;99.90;;;;;;2031833;29;20036;-73
2023/01/24 02:59:12;;;;;;;97.85;43.40;;;2.10;99.90;;;;;;2037208;28;20777;-74
2023/01/24 03:00:13;;;;;;;99.55;42.45;;;2.10;99.90;;;;;;2048415;28;20031;-73
2023/01/24 03:01:15;;;;;;;104.80;45.42;;;2.10;99.90;;;;;;2034464;29;20043;-74
2023/01/24 03:02:19;;;;;;;110.45;46.40;;;2.10;99.90;;;;;;2034841;29;20038;-72
2023/01/24 03:03:20;;;;;;;109.57;45.35;;;2.10;99.90;;;;;;2029144;29;20032;-74
2023/01/24 03:04:21;;;;;;;105.40;44.50;;;2.10;99.90;;;;;;2026613;29;20040;-74
2023/01/24 03:05:21;;;;;;;108.53;46.22;;;2.10;99.90;;;;;;2028459;29;20248;-73
2023/01/24 03:06:23;;;;;;;103.85;46.28;;;2.10;99.90;;;;;;2034395;29;20360;-74
2023/01/24 03:07:24;;;;;;;106.85;46.53;;;2.10;99.90;;;;;;2033665;29;20032;-73
2023/01/24 03:08:33;;;;;;;106.68;45.00;;;2.10;99.90;;;;;;2034379;29;20063;-73
2023/01/24 03:09:38;;;;;;;102.45;44.10;;;2.10;99.90;;;;;;2041904;28;20062;-72
2023/01/24 03:10:38;;;;;;;102.80;44.55;;;2.20;99.90;;;;;;2044222;29;20023;-73
2023/01/24 03:11:40;;;;;;;106.97;45.25;;;2.10;99.90;;;;;;2039892;29;20028;-73
2023/01/24 03:35:13;;;;;;;99.20;41.67;;;1.90;99.90;;;;;;2031550;29;20040;-73
2023/01/24 03:36:19;;;;;;;101.40;42.70;;;1.90;99.90;;;;;;2033021;29;20038;-74
2023/01/24 03:40:07;;;;;;;111.53;44.53;;;1.90;99.90;;;;;;2028324;29;20028;-74
2023/01/24 03:41:07;;;;;;;103.90;43.47;;;1.90;99.90;;;;;;2021850;29;20077;-73
2023/01/24 03:42:09;;;;;;;105.72;43.35;;;1.90;99.90;;;;;;2035802;29;20035;-74
2023/01/24 03:43:10;;;;;;;109.72;45.97;;;1.90;99.90;;;;;;2041894;29;21099;-72
2023/01/24 03:44:13;;;;;;;112.15;45.60;;;1.90;99.90;;;;;;2041669;28;20041;-73
2023/01/24 03:45:16;;;;;;;110.30;44.45;;;1.90;99.90;;;;;;2042510;28;20024;-73
2023/01/24 03:46:18;;;;;;;109.55;44.97;;;1.80;99.90;;;;;;2042283;29;20046;-72
2023/01/24 03:47:23;;;;;;;111.15;45.35;;;1.80;99.90;;;;;;2036268;29;20055;-73
2023/01/24 03:48:34;;;;;;;114.20;44.58;;;1.90;99.90;;;;;;2026555;29;20080;-73
2023/01/24 03:52:28;;;;;;;109.15;43.25;;;1.80;99.90;;;;;;2033883;29;20118;-73
2023/01/24 03:53:31;;;;;;;109.07;43.95;;;1.80;99.90;;;;;;2033478;29;20034;-75
2023/01/24 03:54:33;;;;;;;109.18;44.85;;;1.80;99.90;;;;;;2041635;28;20062;-73
2023/01/24 03:55:37;;;;;;;109.40;44.30;;;1.80;99.90;;;;;;2041811;28;20071;-73
2023/01/24 03:56:38;;;;;;;113.38;45.13;;;1.80;99.90;;;;;;2038350;29;20659;-73
2023/01/24 03:57:40;;;;;;;107.95;45.60;;;1.80;99.90;;;;;;2028013;29;20051;-73
2023/01/24 03:58:42;;;;;;;103.50;43.03;;;1.80;99.90;;;;;;2035518;29;20028;-72
2023/01/24 03:59:45;;;;;;;103.47;43.08;;;1.80;99.90;;;;;;2041407;29;20023;-73
2023/01/24 04:00:46;;;;;;;102.20;43.30;;;1.80;99.90;;;;;;2033941;29;20036;-72
2023/01/24 04:02:06;;;;;;;108.10;43.00;;;1.90;99.90;;;;;;2037066;29;20111;-73
2023/01/24 04:03:12;;;;;;;106.70;43.60;;;1.90;99.90;;;;;;2035599;29;20134;-73
2023/01/24 04:04:12;;;;;;;102.65;43.65;;;1.90;99.90;;;;;;2029522;29;20028;-72
2023/01/24 04:05:13;;;;;;;112.05;45.70;;;1.90;99.90;;;;;;2033811;29;20536;-73
2023/01/24 04:06:17;;;;;;;103.10;42.83;;;1.90;99.90;;;;;;2041284;29;20067;-73
2023/01/24 04:07:18;;;;;;;106.07;43.20;;;1.90;99.90;;;;;;2041665;29;20054;-73
2023/01/24 04:08:19;;;;;;;99.43;41.75;;;1.90;99.90;;;;;;2043568;28;20041;-73
2023/01/24 04:09:21;;;;;;;96.35;41.78;;;1.90;99.90;;;;;;2033675;29;20051;-73
2023/01/24 04:10:22;;;;;;;103.85;42.70;;;1.90;99.90;;;;;;2034077;29;20042;-72
2023/01/24 04:11:25;;;;;;;100.40;43.13;;;1.90;99.90;;;;;;2041527;28;20038;-72
2023/01/24 04:12:32;;;;;;;98.95;41.65;;;1.90;99.90;;;;;;2033609;29;20040;-73
2023/01/24 04:13:34;;;;;;;104.97;43.05;;;2.00;99.90;;;;;;2035801;29;20038;-73
2023/01/24 04:14:34;;;;;;;98.95;41.60;;;1.90;99.90;;;;;;2041220;28;20034;-72
2023/01/24 04:15:45;;;;;;;98.28;41.63;;;1.90;99.90;;;;;;2041788;28;20502;-72
2023/01/24 04:17:18;;;;;;;99.45;42.00;;;2.00;99.90;;;;;;2044695;28;20058;-72
2023/01/24 04:18:24;;;;;;;101.68;43.22;;;2.00;99.90;;;;;;2025999;29;20042;-73
2023/01/24 04:19:24;;;;;;;105.20;44.83;;;2.00;99.90;;;;;;2021858;29;20036;-74
2023/01/24 04:20:28;;;;;;;106.97;44.10;;;2.00;99.90;;;;;;2035775;29;20040;-74
2023/01/24 04:21:29;;;;;;;97.10;42.08;;;2.00;99.90;;;;;;2039733;29;20031;-73
2023/01/24 04:22:31;;;;;;;98.93;42.05;;;2.00;99.90;;;;;;2033622;29;20043;-73
2023/01/24 04:23:34;;;;;;;101.78;43.78;;;2.00;99.90;;;;;;2036052;28;20055;-74
2023/01/24 04:24:35;;;;;;;101.03;42.38;;;2.00;99.90;;;;;;2043534;28;20035;-73
2023/01/24 04:25:36;;;;;;;99.18;43.05;;;2.00;99.90;;;;;;2043472;29;20062;-74
2023/01/24 04:26:38;;;;;;;97.78;42.60;;;2.00;99.90;;;;;;2042550;28;20023;-74
2023/01/24 04:27:41;;;;;;;98.72;42.20;;;2.00;99.90;;;;;;2041342;28;20039;-74
2023/01/24 04:28:46;;;;;;;96.72;41.25;;;2.00;99.90;;;;;;2033609;29;20478;-74
2023/01/24 04:29:47;;;;;;;99.22;42.75;;;2.00;99.90;;;;;;2025715;29;20500;-73
2023/01/24 04:30:48;;;;;;;99.03;41.92;;;2.00;99.90;;;;;;2033846;29;20027;-72
2023/01/24 04:32:05;;;;;;;101.25;41.70;;;2.00;99.90;;;;;;2033222;29;20495;-73
2023/01/24 04:33:13;;;;;;;95.40;41.83;;;2.00;99.90;;;;;;2034610;29;20265;-72
2023/01/24 04:34:13;;;;;;;99.10;42.20;;;1.90;99.90;;;;;;2038153;29;20573;-72
2023/01/24 04:35:20;;;;;;;102.30;41.85;;;2.00;99.90;;;;;;2035523;29;20046;-73
2023/01/24 04:36:26;;;;;;;95.55;40.67;;;1.90;99.90;;;;;;2033867;29;20035;-72
2023/01/24 04:37:27;;;;;;;92.63;41.15;;;1.90;99.90;;;;;;2033399;29;20673;-73
2023/01/24 04:38:27;;;;;;;100.70;42.22;;;1.90;99.90;;;;;;2033455;29;20464;-72
2023/01/24 04:39:42;;;;;;;96.15;39.97;;;1.90;99.90;;;;;;2025719;29;20032;-73
2023/01/24 04:40:58;;;;;;;98.70;40.72;;;1.80;99.90;;;;;;2031594;29;20129;-72
2023/01/24 04:41:58;;;;;;;92.80;40.75;;;1.80;99.90;;;;;;2034254;29;20080;-73
2023/01/24 04:42:59;;;;;;;94.60;40.20;;;1.90;99.90;;;;;;2039138;29;20082;-73
2023/01/24 04:44:00;;;;;;;88.68;39.08;;;1.90;99.90;;;;;;2033428;29;20031;-73
2023/01/24 04:45:01;;;;;;;92.45;40.25;;;1.90;99.90;;;;;;2025513;29;20020;-74
2023/01/24 04:46:02;;;;;;;93.97;40.97;;;1.90;99.90;;;;;;2025456;29;20091;-74
2023/01/24 04:47:18;;;;;;;96.50;41.10;;;1.80;99.90;;;;;;2035414;29;20063;-72
2023/01/24 04:48:19;;;;;;;94.72;41.45;;;1.80;99.90;;;;;;2042565;28;20031;-73
2023/01/24 04:49:19;;;;;;;101.50;42.78;;;1.80;99.90;;;;;;2044390;28;20047;-73
2023/01/24 04:50:22;;;;;;;96.32;40.72;;;1.80;99.90;;;;;;2041689;28;20498;-73
2023/01/24 04:51:22;;;;;;;98.57;41.35;;;1.90;99.90;;;;;;2041157;29;20027;-73
2023/01/24 04:52:24;;;;;;;95.57;41.88;;;1.90;99.90;;;;;;2041367;28;20031;-73
2023/01/24 04:53:40;;;;;;;98.43;41.47;;;1.90;99.90;;;;;;2041504;29;20031;-73
2023/01/24 04:54:40;;;;;;;98.88;41.08;;;1.90;99.90;;;;;;2029076;29;20359;-73
2023/01/24 04:55:41;;;;;;;92.75;39.22;;;1.90;99.90;;;;;;2035476;29;20058;-73
2023/01/24 04:56:41;;;;;;;92.28;38.55;;;1.90;99.90;;;;;;2041906;29;20536;-73
2023/01/24 04:57:43;;;;;;;92.35;39.63;;;1.90;99.90;;;;;;2033598;29;20019;-73
2023/01/24 04:58:44;;;;;;;96.90;41.90;;;1.90;99.90;;;;;;2033708;29;20032;-73
2023/01/24 04:59:46;;;;;;;93.65;40.83;;;1.80;99.90;;;;;;2043434;29;20542;-74
2023/01/24 05:00:48;;;;;;;99.47;42.03;;;1.80;99.90;;;;;;2041472;29;20106;-73
2023/01/24 05:01:48;;;;;;;96.32;40.72;;;1.90;99.90;;;;;;2033207;29;20024;-73
2023/01/24 05:03:04;;;;;;;93.40;39.17;;;1.80;99.90;;;;;;2035255;29;20055;-74
2023/01/24 05:04:05;;;;;;;94.25;39.78;;;1.90;99.90;;;;;;2041322;28;20035;-73
2023/01/24 05:05:07;;;;;;;91.05;39.15;;;1.90;99.90;;;;;;2041297;28;20033;-73
2023/01/24 05:06:08;;;;;;;93.55;40.33;;;1.90;99.90;;;;;;2041288;28;20145;-74
2023/01/24 05:07:09;;;;;;;97.97;42.03;;;1.90;99.90;;;;;;2035605;29;20027;-73
2023/01/24 05:08:10;;;;;;;93.63;40.55;;;1.90;99.90;;;;;;2025552;29;20051;-73
2023/01/24 05:09:11;;;;;;;95.10;40.08;;;1.90;99.90;;;;;;2033291;29;20038;-73
2023/01/24 05:10:23;;;;;;;;;;;1.90;99.90;;;;;;2036019;29;20035;-73
2023/01/24 05:11:25;;;;;;;99.68;39.95;;;1.90;99.90;;;;;;2033375;29;19915;-72
2023/01/24 05:12:27;;;;;;;99.60;40.65;;;1.80;99.90;;;;;;2041206;29;20513;-72
2023/01/24 05:13:30;;;;;;;101.90;41.47;;;1.80;99.90;;;;;;2042696;28;20065;-73
2023/01/24 05:14:32;;;;;;;98.30;42.05;;;1.80;99.90;;;;;;2035936;29;20031;-73
2023/01/24 05:15:32;;;;;;;99.00;41.13;;;1.80;99.90;;;;;;2034999;29;20082;-73
2023/01/24 05:16:35;;;;;;;96.25;41.15;;;1.80;99.90;;;;;;2033412;29;20539;-74
2023/01/24 05:17:35;;;;;;;94.47;40.08;;;1.70;99.90;;;;;;2032966;29;20028;-73
2023/01/24 05:18:36;;;;;;;100.10;41.38;;;1.80;99.90;;;;;;2033213;29;20024;-73
2023/01/24 05:19:37;;;;;;;98.38;40.83;;;1.80;99.90;;;;;;2033517;29;20466;-74
2023/01/24 05:20:38;;;;;;;98.47;41.15;;;1.80;99.90;;;;;;2035055;29;20023;-75
2023/01/24 05:21:39;;;;;;;98.22;41.97;;;1.80;99.90;;;;;;2023226;29;20032;-74
2023/01/24 05:22:39;;;;;;;91.90;39.00;;;1.80;99.90;;;;;;2035339;29;20146;-74
2023/01/24 05:23:41;;;;;;;91.47;39.33;;;1.80;99.90;;;;;;2034291;29;20055;-74
2023/01/24 05:24:42;;;;;;;95.47;40.22;;;1.80;99.90;;;;;;2033433;29;20028;-74
2023/01/24 05:25:42;;;;;;;97.00;40.58;;;1.80;99.90;;;;;;2029594;29;20043;-74
2023/01/24 05:26:43;;;;;;;90.40;39.40;;;1.80;99.90;;;;;;2027866;29;20036;-72
2023/01/24 05:27:45;;;;;;;93.93;39.80;;;1.80;99.90;;;;;;2028242;29;20054;-73
2023/01/24 05:28:49;;;;;;;92.43;39.70;;;1.80;99.90;;;;;;2028300;29;20032;-72
2023/01/24 05:29:49;;;;;;;96.65;40.58;;;1.80;99.90;;;;;;2029874;29;20028;-74
2023/01/24 05:30:50;;;;;;;96.10;41.60;;;1.80;99.90;;;;;;2027970;29;20909;-73
2023/01/24 05:32:00;;;;;;;;;;;1.80;99.90;;;;;;2036252;29;20487;-73
2023/01/24 05:33:03;;;;;;;92.68;38.80;;;1.80;99.90;;;;;;2036066;29;19959;-73
2023/01/24 05:34:05;;;;;;;97.05;40.10;;;1.80;99.90;;;;;;2035820;29;20027;-74
2023/01/24 05:35:07;;;;;;;98.22;41.00;;;1.80;99.90;;;;;;2035833;29;20024;-74
2023/01/24 05:36:10;;;;;;;94.75;40.63;;;1.80;99.90;;;;;;2037467;29;20023;-73
2023/01/24 05:37:12;;;;;;;90.65;39.58;;;1.90;99.90;;;;;;2035871;29;20040;-74
2023/01/24 05:38:16;;;;;;;94.63;41.13;;;1.90;99.90;;;;;;2036456;29;20024;-74
2023/01/24 05:39:18;;;;;;;93.20;40.88;;;1.90;99.90;;;;;;2035817;29;20040;-74
2023/01/24 05:40:20;;;;;;;98.63;41.83;;;2.00;99.90;;;;;;2034692;29;20557;-73
2023/01/24 05:41:20;;;;;;;90.97;40.13;;;1.90;99.90;;;;;;2035896;29;20020;-73
2023/01/24 05:42:23;;;;;;;100.00;41.90;;;1.90;99.90;;;;;;2036081;29;20333;-74
2023/01/24 05:43:28;;;;;;;98.75;41.65;;;1.90;99.90;;;;;;2043942;28;20042;-73
2023/01/24 05:44:29;;;;;;;95.78;40.47;;;1.90;99.90;;;;;;2043765;28;20506;-74
2023/01/24 05:45:32;;;;;;;95.70;40.85;;;1.90;99.90;;;;;;2041922;28;20046;-73
2023/01/24 05:46:33;;;;;;;93.18;40.88;;;1.80;99.90;;;;;;2043460;29;20078;-73
2023/01/24 05:47:39;;;;;;;94.35;40.65;;;1.80;99.90;;;;;;2036454;29;20066;-73
2023/01/24 05:48:42;;;;;;;96.40;40.67;;;1.80;99.90;;;;;;2043548;29;20593;-73
2023/01/24 05:49:44;;;;;;;96.05;41.50;;;1.80;99.90;;;;;;2045537;28;20251;-73
2023/01/24 05:50:45;;;;;;;97.95;41.22;;;1.80;99.90;;;;;;2048244;28;20516;-73
2023/01/24 05:51:48;;;;;;;96.57;42.00;;;1.80;99.90;;;;;;2035579;29;20030;-74
2023/01/24 05:52:55;;;;;;;92.55;40.92;;;1.80;99.90;;;;;;2036601;29;20046;-74
2023/01/24 05:53:55;;;;;;;104.45;43.50;;;1.80;99.90;;;;;;2045683;28;20039;-73
2023/01/24 05:55:18;;;;;;;96.88;40.08;;;1.80;99.90;;;;;;2041984;29;20087;-73
2023/01/24 05:56:23;;;;;;;100.38;41.25;;;1.80;99.90;;;;;;2035504;29;20133;-73
2023/01/24 05:57:23;;;;;;;98.82;41.05;;;1.80;99.90;;;;;;2037784;29;20479;-74
2023/01/24 05:58:44;;;;;;;102.07;40.78;;;1.70;99.90;;;;;;2041846;29;20027;-73
2023/01/24 05:59:49;;;;;;;99.60;41.38;;;1.70;99.90;;;;;;2037090;29;20482;-72